sensor_id;sensor_type;location;lat;lon;timestamp;P1;durP1;ratioP1;P2;durP2;ratioP2
5199;SDS011;2619;47.868;11.892;2022-10-26T00:01:28;7.23;;;3.70;;
5199;SDS011;2619;47.868;11.892;2022-10-26T00:03:54;4.47;;;3.27;;
5199;SDS011;2619;47.868;11.892;2022-10-26T00:06:21;15.43;;;7.17;;
5199;SDS011;2619;47.868;11.892;2022-10-26T00:08:55;33.73;;;14.50;;
5199;SDS011;2619;47.868;11.892;2022-10-26T00:11:21;53.07;;;23.43;;
5199;SDS011;2619;47.868;11.892;2022-10-26T00:13:47;23.53;;;12.00;;
5199;SDS011;2619;47.868;11.892;2022-10-26T00:16:18;25.30;;;11.70;;
5199;SDS011;2619;47.868;11.892;2022-10-26T00:18:46;84.83;;;34.07;;
5199;SDS011;2619;47.868;11.892;2022-10-26T00:21:12;57.17;;;27.20;;
5199;SDS011;2619;47.868;11.892;2022-10-26T00:23:38;49.27;;;23.57;;
5199;SDS011;2619;47.868;11.892;2022-10-26T00:26:04;62.13;;;28.23;;
5199;SDS011;2619;47.868;11.892;2022-10-26T00:28:30;45.60;;;22.97;;
5199;SDS011;2619;47.868;11.892;2022-10-26T00:31:03;43.63;;;21.53;;
5199;SDS011;2619;47.868;11.892;2022-10-26T00:33:30;44.43;;;22.07;;
5199;SDS011;2619;47.868;11.892;2022-10-26T00:35:56;43.40;;;19.97;;
5199;SDS011;2619;47.868;11.892;2022-10-26T00:38:22;35.67;;;18.23;;
5199;SDS011;2619;47.868;11.892;2022-10-26T00:40:48;40.73;;;19.60;;
5199;SDS011;2619;47.868;11.892;2022-10-26T00:43:59;37.37;;;19.20;;
5199;SDS011;2619;47.868;11.892;2022-10-26T00:46:02;62.70;;;27.23;;
5199;SDS011;2619;47.868;11.892;2022-10-26T00:48:34;52.30;;;24.93;;
5199;SDS011;2619;47.868;11.892;2022-10-26T00:51:05;38.27;;;20.73;;
5199;SDS011;2619;47.868;11.892;2022-10-26T00:53:42;40.63;;;20.00;;
5199;SDS011;2619;47.868;11.892;2022-10-26T00:56:08;42.20;;;18.80;;
5199;SDS011;2619;47.868;11.892;2022-10-26T00:58:34;30.63;;;15.10;;
5199;SDS011;2619;47.868;11.892;2022-10-26T01:01:00;29.87;;;15.10;;
5199;SDS011;2619;47.868;11.892;2022-10-26T01:03:26;28.70;;;15.00;;
5199;SDS011;2619;47.868;11.892;2022-10-26T01:05:52;28.83;;;16.37;;
5199;SDS011;2619;47.868;11.892;2022-10-26T01:08:21;34.33;;;13.73;;
5199;SDS011;2619;47.868;11.892;2022-10-26T01:10:48;31.00;;;16.07;;
5199;SDS011;2619;47.868;11.892;2022-10-26T01:13:15;27.60;;;14.90;;
5199;SDS011;2619;47.868;11.892;2022-10-26T01:18:16;40.80;;;18.87;;
5199;SDS011;2619;47.868;11.892;2022-10-26T01:23:43;30.43;;;16.23;;
5199;SDS011;2619;47.868;11.892;2022-10-26T01:32:17;18.70;;;10.70;;
5199;SDS011;2619;47.868;11.892;2022-10-26T01:35:13;15.83;;;8.67;;
5199;SDS011;2619;47.868;11.892;2022-10-26T01:37:46;13.80;;;7.20;;
5199;SDS011;2619;47.868;11.892;2022-10-26T01:40:39;12.37;;;6.90;;
5199;SDS011;2619;47.868;11.892;2022-10-26T01:43:31;11.33;;;6.83;;
5199;SDS011;2619;47.868;11.892;2022-10-26T01:46:01;9.83;;;6.83;;
5199;SDS011;2619;47.868;11.892;2022-10-26T01:48:29;13.83;;;7.37;;
5199;SDS011;2619;47.868;11.892;2022-10-26T01:50:56;10.03;;;6.50;;
5199;SDS011;2619;47.868;11.892;2022-10-26T01:53:23;10.43;;;5.77;;
5199;SDS011;2619;47.868;11.892;2022-10-26T01:55:51;9.57;;;6.13;;
5199;SDS011;2619;47.868;11.892;2022-10-26T02:06:21;13.33;;;5.93;;
5199;SDS011;2619;47.868;11.892;2022-10-26T02:09:10;10.27;;;6.10;;
5199;SDS011;2619;47.868;11.892;2022-10-26T02:11:38;9.93;;;5.90;;
5199;SDS011;2619;47.868;11.892;2022-10-26T02:17:06;6.43;;;5.23;;
5199;SDS011;2619;47.868;11.892;2022-10-26T02:19:45;8.10;;;5.73;;
5199;SDS011;2619;47.868;11.892;2022-10-26T02:22:18;7.67;;;5.23;;
5199;SDS011;2619;47.868;11.892;2022-10-26T02:24:50;8.33;;;5.50;;
5199;SDS011;2619;47.868;11.892;2022-10-26T02:27:21;8.40;;;5.30;;
5199;SDS011;2619;47.868;11.892;2022-10-26T02:29:51;8.60;;;5.20;;
5199;SDS011;2619;47.868;11.892;2022-10-26T02:32:20;6.87;;;5.20;;
5199;SDS011;2619;47.868;11.892;2022-10-26T02:34:49;8.87;;;5.10;;
5199;SDS011;2619;47.868;11.892;2022-10-26T02:37:17;5.80;;;4.70;;
5199;SDS011;2619;47.868;11.892;2022-10-26T02:39:46;6.33;;;4.60;;
5199;SDS011;2619;47.868;11.892;2022-10-26T02:42:13;7.80;;;5.00;;
5199;SDS011;2619;47.868;11.892;2022-10-26T02:44:40;7.23;;;4.60;;
5199;SDS011;2619;47.868;11.892;2022-10-26T02:47:10;6.47;;;5.10;;
5199;SDS011;2619;47.868;11.892;2022-10-26T02:49:36;7.93;;;5.13;;
5199;SDS011;2619;47.868;11.892;2022-10-26T02:52:08;5.53;;;3.77;;
5199;SDS011;2619;47.868;11.892;2022-10-26T02:54:44;7.33;;;3.43;;
5199;SDS011;2619;47.868;11.892;2022-10-26T02:57:37;5.30;;;3.53;;
5199;SDS011;2619;47.868;11.892;2022-10-26T03:00:11;5.03;;;3.20;;
5199;SDS011;2619;47.868;11.892;2022-10-26T03:02:40;5.90;;;3.40;;
5199;SDS011;2619;47.868;11.892;2022-10-26T03:05:28;5.10;;;4.10;;
5199;SDS011;2619;47.868;11.892;2022-10-26T03:07:54;5.10;;;3.20;;
5199;SDS011;2619;47.868;11.892;2022-10-26T03:10:20;3.73;;;2.40;;
5199;SDS011;2619;47.868;11.892;2022-10-26T03:12:46;4.97;;;2.40;;
5199;SDS011;2619;47.868;11.892;2022-10-26T03:15:12;4.33;;;2.00;;
5199;SDS011;2619;47.868;11.892;2022-10-26T03:17:38;4.40;;;2.10;;
5199;SDS011;2619;47.868;11.892;2022-10-26T03:20:03;5.10;;;1.87;;
5199;SDS011;2619;47.868;11.892;2022-10-26T03:22:29;5.17;;;3.40;;
5199;SDS011;2619;47.868;11.892;2022-10-26T03:24:55;4.77;;;2.53;;
5199;SDS011;2619;47.868;11.892;2022-10-26T03:27:21;3.97;;;2.40;;
5199;SDS011;2619;47.868;11.892;2022-10-26T03:29:47;3.10;;;1.83;;
5199;SDS011;2619;47.868;11.892;2022-10-26T03:32:12;4.87;;;3.17;;
5199;SDS011;2619;47.868;11.892;2022-10-26T03:34:38;3.50;;;2.60;;
5199;SDS011;2619;47.868;11.892;2022-10-26T03:37:03;7.83;;;4.00;;
5199;SDS011;2619;47.868;11.892;2022-10-26T03:39:29;4.73;;;3.60;;
5199;SDS011;2619;47.868;11.892;2022-10-26T03:41:54;6.67;;;4.30;;
5199;SDS011;2619;47.868;11.892;2022-10-26T03:44:20;6.00;;;4.13;;
5199;SDS011;2619;47.868;11.892;2022-10-26T03:46:46;4.70;;;3.60;;
5199;SDS011;2619;47.868;11.892;2022-10-26T03:49:12;5.63;;;4.60;;
5199;SDS011;2619;47.868;11.892;2022-10-26T03:51:37;6.30;;;3.87;;
5199;SDS011;2619;47.868;11.892;2022-10-26T03:54:03;7.13;;;4.30;;
5199;SDS011;2619;47.868;11.892;2022-10-26T03:56:29;10.10;;;4.83;;
5199;SDS011;2619;47.868;11.892;2022-10-26T03:58:54;8.20;;;5.37;;
5199;SDS011;2619;47.868;11.892;2022-10-26T04:01:20;6.83;;;5.10;;
5199;SDS011;2619;47.868;11.892;2022-10-26T04:03:46;7.83;;;4.90;;
5199;SDS011;2619;47.868;11.892;2022-10-26T04:06:12;8.43;;;5.13;;
5199;SDS011;2619;47.868;11.892;2022-10-26T04:08:37;7.87;;;5.07;;
5199;SDS011;2619;47.868;11.892;2022-10-26T04:11:03;9.50;;;5.07;;
5199;SDS011;2619;47.868;11.892;2022-10-26T04:13:29;10.33;;;4.77;;
5199;SDS011;2619;47.868;11.892;2022-10-26T04:15:54;6.90;;;5.20;;
5199;SDS011;2619;47.868;11.892;2022-10-26T04:18:20;8.77;;;5.83;;
5199;SDS011;2619;47.868;11.892;2022-10-26T04:20:45;7.80;;;4.83;;
5199;SDS011;2619;47.868;11.892;2022-10-26T04:23:12;10.10;;;5.30;;
5199;SDS011;2619;47.868;11.892;2022-10-26T04:25:39;7.20;;;5.20;;
5199;SDS011;2619;47.868;11.892;2022-10-26T04:28:05;6.63;;;4.93;;
5199;SDS011;2619;47.868;11.892;2022-10-26T04:30:32;7.53;;;4.90;;
5199;SDS011;2619;47.868;11.892;2022-10-26T04:32:59;8.13;;;5.03;;
5199;SDS011;2619;47.868;11.892;2022-10-26T04:35:24;10.33;;;5.80;;
5199;SDS011;2619;47.868;11.892;2022-10-26T04:37:55;9.13;;;5.40;;
5199;SDS011;2619;47.868;11.892;2022-10-26T04:40:24;8.40;;;6.20;;
5199;SDS011;2619;47.868;11.892;2022-10-26T04:42:50;9.57;;;5.10;;
5199;SDS011;2619;47.868;11.892;2022-10-26T04:45:16;8.27;;;5.03;;
5199;SDS011;2619;47.868;11.892;2022-10-26T04:47:42;7.30;;;5.23;;
5199;SDS011;2619;47.868;11.892;2022-10-26T04:50:08;8.37;;;5.50;;
5199;SDS011;2619;47.868;11.892;2022-10-26T04:52:34;8.73;;;5.60;;
5199;SDS011;2619;47.868;11.892;2022-10-26T04:55:01;8.37;;;5.77;;
5199;SDS011;2619;47.868;11.892;2022-10-26T04:57:30;6.23;;;4.67;;
5199;SDS011;2619;47.868;11.892;2022-10-26T04:59:57;7.73;;;5.20;;
5199;SDS011;2619;47.868;11.892;2022-10-26T05:02:22;9.83;;;6.07;;
5199;SDS011;2619;47.868;11.892;2022-10-26T05:04:48;8.80;;;5.30;;
5199;SDS011;2619;47.868;11.892;2022-10-26T05:07:14;5.77;;;4.63;;
5199;SDS011;2619;47.868;11.892;2022-10-26T05:09:39;7.47;;;5.27;;
5199;SDS011;2619;47.868;11.892;2022-10-26T05:12:05;11.40;;;6.33;;
5199;SDS011;2619;47.868;11.892;2022-10-26T05:14:30;7.43;;;5.87;;
5199;SDS011;2619;47.868;11.892;2022-10-26T05:16:56;7.20;;;5.93;;
5199;SDS011;2619;47.868;11.892;2022-10-26T05:19:22;11.00;;;6.57;;
5199;SDS011;2619;47.868;11.892;2022-10-26T05:21:47;10.10;;;6.20;;
5199;SDS011;2619;47.868;11.892;2022-10-26T05:24:13;5.30;;;3.93;;
5199;SDS011;2619;47.868;11.892;2022-10-26T05:26:38;6.83;;;5.03;;
5199;SDS011;2619;47.868;11.892;2022-10-26T05:29:04;9.33;;;5.30;;
5199;SDS011;2619;47.868;11.892;2022-10-26T05:31:29;7.20;;;4.60;;
5199;SDS011;2619;47.868;11.892;2022-10-26T05:33:55;5.93;;;4.00;;
5199;SDS011;2619;47.868;11.892;2022-10-26T05:36:20;6.90;;;4.07;;
5199;SDS011;2619;47.868;11.892;2022-10-26T05:38:46;6.37;;;4.47;;
5199;SDS011;2619;47.868;11.892;2022-10-26T05:41:12;5.20;;;3.90;;
5199;SDS011;2619;47.868;11.892;2022-10-26T05:43:37;9.77;;;5.10;;
5199;SDS011;2619;47.868;11.892;2022-10-26T05:46:03;7.60;;;4.30;;
5199;SDS011;2619;47.868;11.892;2022-10-26T05:48:29;6.90;;;4.00;;
5199;SDS011;2619;47.868;11.892;2022-10-26T05:50:58;5.30;;;2.73;;
5199;SDS011;2619;47.868;11.892;2022-10-26T05:53:25;5.00;;;3.60;;
5199;SDS011;2619;47.868;11.892;2022-10-26T05:55:51;6.90;;;3.20;;
5199;SDS011;2619;47.868;11.892;2022-10-26T05:58:17;8.40;;;4.17;;
5199;SDS011;2619;47.868;11.892;2022-10-26T06:00:46;7.87;;;4.63;;
5199;SDS011;2619;47.868;11.892;2022-10-26T06:06:26;8.53;;;3.40;;
5199;SDS011;2619;47.868;11.892;2022-10-26T06:08:59;5.23;;;2.53;;
5199;SDS011;2619;47.868;11.892;2022-10-26T06:11:25;4.40;;;2.33;;
5199;SDS011;2619;47.868;11.892;2022-10-26T06:13:51;4.23;;;2.73;;
5199;SDS011;2619;47.868;11.892;2022-10-26T06:16:21;7.57;;;2.90;;
5199;SDS011;2619;47.868;11.892;2022-10-26T06:22:09;5.13;;;2.33;;
5199;SDS011;2619;47.868;11.892;2022-10-26T06:29:40;5.43;;;4.27;;
5199;SDS011;2619;47.868;11.892;2022-10-26T06:32:15;3.53;;;2.23;;
5199;SDS011;2619;47.868;11.892;2022-10-26T06:34:42;3.03;;;1.60;;
5199;SDS011;2619;47.868;11.892;2022-10-26T06:37:10;5.33;;;1.90;;
5199;SDS011;2619;47.868;11.892;2022-10-26T06:39:38;5.77;;;2.03;;
5199;SDS011;2619;47.868;11.892;2022-10-26T06:42:09;5.83;;;1.40;;
5199;SDS011;2619;47.868;11.892;2022-10-26T06:44:35;4.00;;;1.77;;
5199;SDS011;2619;47.868;11.892;2022-10-26T06:47:05;6.10;;;1.47;;
5199;SDS011;2619;47.868;11.892;2022-10-26T06:52:40;4.60;;;1.50;;
5199;SDS011;2619;47.868;11.892;2022-10-26T06:55:13;2.47;;;1.10;;
5199;SDS011;2619;47.868;11.892;2022-10-26T06:57:40;2.63;;;1.20;;
5199;SDS011;2619;47.868;11.892;2022-10-26T07:00:13;3.33;;;1.00;;
5199;SDS011;2619;47.868;11.892;2022-10-26T07:02:43;1.83;;;0.93;;
5199;SDS011;2619;47.868;11.892;2022-10-26T07:05:09;3.80;;;1.10;;
5199;SDS011;2619;47.868;11.892;2022-10-26T07:07:39;2.43;;;0.90;;
5199;SDS011;2619;47.868;11.892;2022-10-26T07:10:06;3.17;;;1.00;;
5199;SDS011;2619;47.868;11.892;2022-10-26T07:12:33;5.37;;;1.53;;
5199;SDS011;2619;47.868;11.892;2022-10-26T07:14:58;5.10;;;2.60;;
5199;SDS011;2619;47.868;11.892;2022-10-26T07:17:24;3.80;;;2.70;;
5199;SDS011;2619;47.868;11.892;2022-10-26T07:19:52;3.60;;;2.60;;
5199;SDS011;2619;47.868;11.892;2022-10-26T07:22:18;5.50;;;3.33;;
5199;SDS011;2619;47.868;11.892;2022-10-26T07:24:44;4.37;;;2.67;;
5199;SDS011;2619;47.868;11.892;2022-10-26T07:27:09;5.43;;;3.10;;
5199;SDS011;2619;47.868;11.892;2022-10-26T07:29:35;6.13;;;3.00;;
5199;SDS011;2619;47.868;11.892;2022-10-26T07:32:00;4.20;;;2.60;;
5199;SDS011;2619;47.868;11.892;2022-10-26T07:34:26;5.40;;;3.07;;
5199;SDS011;2619;47.868;11.892;2022-10-26T07:36:52;4.10;;;2.40;;
5199;SDS011;2619;47.868;11.892;2022-10-26T07:39:17;7.53;;;2.63;;
5199;SDS011;2619;47.868;11.892;2022-10-26T07:41:43;4.47;;;2.60;;
5199;SDS011;2619;47.868;11.892;2022-10-26T07:44:09;3.83;;;2.57;;
5199;SDS011;2619;47.868;11.892;2022-10-26T07:46:35;3.97;;;2.30;;
5199;SDS011;2619;47.868;11.892;2022-10-26T07:49:00;4.50;;;2.10;;
5199;SDS011;2619;47.868;11.892;2022-10-26T07:51:26;4.23;;;2.73;;
5199;SDS011;2619;47.868;11.892;2022-10-26T07:53:52;3.97;;;2.27;;
5199;SDS011;2619;47.868;11.892;2022-10-26T07:56:17;4.23;;;2.30;;
5199;SDS011;2619;47.868;11.892;2022-10-26T07:58:43;3.87;;;2.70;;
5199;SDS011;2619;47.868;11.892;2022-10-26T08:01:10;4.90;;;3.40;;
5199;SDS011;2619;47.868;11.892;2022-10-26T08:03:37;4.43;;;3.10;;
5199;SDS011;2619;47.868;11.892;2022-10-26T08:06:03;5.10;;;3.37;;
5199;SDS011;2619;47.868;11.892;2022-10-26T08:08:29;4.87;;;3.00;;
5199;SDS011;2619;47.868;11.892;2022-10-26T08:10:55;3.63;;;2.60;;
5199;SDS011;2619;47.868;11.892;2022-10-26T08:13:21;5.90;;;3.10;;
5199;SDS011;2619;47.868;11.892;2022-10-26T08:15:47;4.27;;;3.37;;
5199;SDS011;2619;47.868;11.892;2022-10-26T08:18:12;4.80;;;3.30;;
5199;SDS011;2619;47.868;11.892;2022-10-26T08:20:38;4.60;;;3.70;;
5199;SDS011;2619;47.868;11.892;2022-10-26T08:23:04;4.40;;;3.13;;
5199;SDS011;2619;47.868;11.892;2022-10-26T08:25:30;6.80;;;3.67;;
5199;SDS011;2619;47.868;11.892;2022-10-26T08:28:02;3.57;;;2.70;;
5199;SDS011;2619;47.868;11.892;2022-10-26T08:30:28;4.83;;;2.60;;
5199;SDS011;2619;47.868;11.892;2022-10-26T08:32:58;5.97;;;2.93;;
5199;SDS011;2619;47.868;11.892;2022-10-26T08:35:25;3.30;;;2.47;;
5199;SDS011;2619;47.868;11.892;2022-10-26T08:37:51;3.80;;;2.43;;
5199;SDS011;2619;47.868;11.892;2022-10-26T08:40:17;5.40;;;3.53;;
5199;SDS011;2619;47.868;11.892;2022-10-26T08:42:48;8.10;;;3.40;;
5199;SDS011;2619;47.868;11.892;2022-10-26T08:45:38;4.43;;;3.30;;
5199;SDS011;2619;47.868;11.892;2022-10-26T08:48:12;5.40;;;3.20;;
5199;SDS011;2619;47.868;11.892;2022-10-26T08:50:44;4.83;;;3.33;;
5199;SDS011;2619;47.868;11.892;2022-10-26T08:56:34;6.93;;;3.40;;
5199;SDS011;2619;47.868;11.892;2022-10-26T08:59:11;4.47;;;2.97;;
5199;SDS011;2619;47.868;11.892;2022-10-26T09:01:52;4.07;;;3.00;;
5199;SDS011;2619;47.868;11.892;2022-10-26T09:04:18;5.70;;;2.87;;
5199;SDS011;2619;47.868;11.892;2022-10-26T09:12:40;4.03;;;3.07;;
5199;SDS011;2619;47.868;11.892;2022-10-26T09:17:36;5.10;;;3.50;;
5199;SDS011;2619;47.868;11.892;2022-10-26T09:25:40;6.37;;;3.20;;
5199;SDS011;2619;47.868;11.892;2022-10-26T09:28:11;4.77;;;3.13;;
5199;SDS011;2619;47.868;11.892;2022-10-26T09:30:42;4.27;;;2.50;;
5199;SDS011;2619;47.868;11.892;2022-10-26T09:33:16;3.10;;;2.00;;
5199;SDS011;2619;47.868;11.892;2022-10-26T09:35:50;4.83;;;2.73;;
5199;SDS011;2619;47.868;11.892;2022-10-26T09:46:23;4.00;;;3.37;;
5199;SDS011;2619;47.868;11.892;2022-10-26T09:48:59;6.83;;;2.60;;
5199;SDS011;2619;47.868;11.892;2022-10-26T09:51:29;6.33;;;2.67;;
5199;SDS011;2619;47.868;11.892;2022-10-26T09:53:56;4.10;;;2.80;;
5199;SDS011;2619;47.868;11.892;2022-10-26T09:56:22;4.47;;;2.23;;
5199;SDS011;2619;47.868;11.892;2022-10-26T09:58:52;4.00;;;2.90;;
5199;SDS011;2619;47.868;11.892;2022-10-26T10:01:27;3.80;;;2.50;;
5199;SDS011;2619;47.868;11.892;2022-10-26T10:06:40;5.00;;;3.80;;
5199;SDS011;2619;47.868;11.892;2022-10-26T10:09:25;6.10;;;3.70;;
5199;SDS011;2619;47.868;11.892;2022-10-26T10:11:52;5.53;;;3.63;;
5199;SDS011;2619;47.868;11.892;2022-10-26T10:16:51;6.50;;;3.70;;
5199;SDS011;2619;47.868;11.892;2022-10-26T10:19:23;4.13;;;3.13;;
5199;SDS011;2619;47.868;11.892;2022-10-26T10:21:53;4.73;;;3.00;;
5199;SDS011;2619;47.868;11.892;2022-10-26T10:24:30;12.43;;;3.53;;
5199;SDS011;2619;47.868;11.892;2022-10-26T10:27:30;4.20;;;3.10;;
5199;SDS011;2619;47.868;11.892;2022-10-26T10:29:50;5.60;;;3.13;;
5199;SDS011;2619;47.868;11.892;2022-10-26T10:34:46;5.30;;;3.37;;
5199;SDS011;2619;47.868;11.892;2022-10-26T10:40:06;6.60;;;2.60;;
5199;SDS011;2619;47.868;11.892;2022-10-26T10:42:39;6.60;;;3.30;;
5199;SDS011;2619;47.868;11.892;2022-10-26T10:45:06;4.17;;;3.10;;
5199;SDS011;2619;47.868;11.892;2022-10-26T10:47:57;4.30;;;3.13;;
5199;SDS011;2619;47.868;11.892;2022-10-26T10:50:38;4.27;;;2.87;;
5199;SDS011;2619;47.868;11.892;2022-10-26T10:53:17;4.83;;;3.03;;
5199;SDS011;2619;47.868;11.892;2022-10-26T10:58:33;20.73;;;3.17;;
5199;SDS011;2619;47.868;11.892;2022-10-26T11:01:06;3.67;;;1.77;;
5199;SDS011;2619;47.868;11.892;2022-10-26T11:03:46;4.23;;;1.17;;
5199;SDS011;2619;47.868;11.892;2022-10-26T11:06:32;2.70;;;0.97;;
5199;SDS011;2619;47.868;11.892;2022-10-26T11:11:31;2.10;;;0.90;;
5199;SDS011;2619;47.868;11.892;2022-10-26T11:19:44;3.37;;;0.80;;
5199;SDS011;2619;47.868;11.892;2022-10-26T11:22:12;2.03;;;0.80;;
5199;SDS011;2619;47.868;11.892;2022-10-26T11:24:42;3.37;;;1.10;;
5199;SDS011;2619;47.868;11.892;2022-10-26T11:27:14;6.10;;;1.20;;
5199;SDS011;2619;47.868;11.892;2022-10-26T11:29:51;3.47;;;1.00;;
5199;SDS011;2619;47.868;11.892;2022-10-26T11:32:23;5.70;;;0.97;;
5199;SDS011;2619;47.868;11.892;2022-10-26T11:34:54;5.33;;;1.23;;
5199;SDS011;2619;47.868;11.892;2022-10-26T11:40:19;2.53;;;0.90;;
5199;SDS011;2619;47.868;11.892;2022-10-26T11:43:10;3.80;;;1.10;;
5199;SDS011;2619;47.868;11.892;2022-10-26T11:45:42;2.90;;;0.87;;
5199;SDS011;2619;47.868;11.892;2022-10-26T11:48:14;6.50;;;1.13;;
5199;SDS011;2619;47.868;11.892;2022-10-26T11:50:53;5.53;;;1.23;;
5199;SDS011;2619;47.868;11.892;2022-10-26T11:53:29;2.50;;;1.07;;
5199;SDS011;2619;47.868;11.892;2022-10-26T11:56:02;3.10;;;0.90;;
5199;SDS011;2619;47.868;11.892;2022-10-26T11:58:34;1.90;;;0.80;;
5199;SDS011;2619;47.868;11.892;2022-10-26T12:01:07;2.03;;;1.23;;
5199;SDS011;2619;47.868;11.892;2022-10-26T12:03:40;5.47;;;2.67;;
5199;SDS011;2619;47.868;11.892;2022-10-26T12:06:10;5.23;;;1.30;;
5199;SDS011;2619;47.868;11.892;2022-10-26T12:08:42;6.87;;;1.90;;
5199;SDS011;2619;47.868;11.892;2022-10-26T12:14:10;4.73;;;2.80;;
5199;SDS011;2619;47.868;11.892;2022-10-26T12:19:28;5.83;;;1.30;;
5199;SDS011;2619;47.868;11.892;2022-10-26T12:21:56;8.33;;;1.53;;
5199;SDS011;2619;47.868;11.892;2022-10-26T12:26:51;3.67;;;1.90;;
5199;SDS011;2619;47.868;11.892;2022-10-26T12:29:43;4.33;;;1.40;;
5199;SDS011;2619;47.868;11.892;2022-10-26T12:39:45;3.03;;;1.30;;
5199;SDS011;2619;47.868;11.892;2022-10-26T12:47:48;4.17;;;1.30;;
5199;SDS011;2619;47.868;11.892;2022-10-26T12:49:58;3.80;;;1.50;;
5199;SDS011;2619;47.868;11.892;2022-10-26T12:52:28;10.50;;;2.03;;
5199;SDS011;2619;47.868;11.892;2022-10-26T13:00:13;7.87;;;1.73;;
5199;SDS011;2619;47.868;11.892;2022-10-26T13:06:09;4.97;;;1.20;;
5199;SDS011;2619;47.868;11.892;2022-10-26T13:08:49;4.03;;;1.10;;
5199;SDS011;2619;47.868;11.892;2022-10-26T13:13:55;3.57;;;1.23;;
5199;SDS011;2619;47.868;11.892;2022-10-26T13:16:24;5.93;;;1.50;;
5199;SDS011;2619;47.868;11.892;2022-10-26T13:18:51;5.00;;;1.63;;
5199;SDS011;2619;47.868;11.892;2022-10-26T13:21:18;5.30;;;1.53;;
5199;SDS011;2619;47.868;11.892;2022-10-26T13:23:46;5.00;;;1.40;;
5199;SDS011;2619;47.868;11.892;2022-10-26T13:26:18;2.67;;;1.50;;
5199;SDS011;2619;47.868;11.892;2022-10-26T13:33:55;3.57;;;1.20;;
5199;SDS011;2619;47.868;11.892;2022-10-26T13:36:26;3.90;;;1.80;;
5199;SDS011;2619;47.868;11.892;2022-10-26T13:38:57;5.80;;;1.67;;
5199;SDS011;2619;47.868;11.892;2022-10-26T13:41:33;3.87;;;1.37;;
5199;SDS011;2619;47.868;11.892;2022-10-26T13:44:02;5.90;;;1.50;;
5199;SDS011;2619;47.868;11.892;2022-10-26T13:46:33;5.60;;;1.80;;
5199;SDS011;2619;47.868;11.892;2022-10-26T13:49:16;5.30;;;1.90;;
5199;SDS011;2619;47.868;11.892;2022-10-26T13:51:46;3.70;;;1.50;;
5199;SDS011;2619;47.868;11.892;2022-10-26T13:54:26;3.33;;;1.50;;
5199;SDS011;2619;47.868;11.892;2022-10-26T13:59:27;4.37;;;1.70;;
5199;SDS011;2619;47.868;11.892;2022-10-26T14:02:06;3.57;;;1.33;;
5199;SDS011;2619;47.868;11.892;2022-10-26T14:04:38;3.37;;;1.47;;
5199;SDS011;2619;47.868;11.892;2022-10-26T14:07:04;6.30;;;2.30;;
5199;SDS011;2619;47.868;11.892;2022-10-26T14:09:29;2.30;;;1.20;;
5199;SDS011;2619;47.868;11.892;2022-10-26T14:11:56;5.13;;;1.80;;
5199;SDS011;2619;47.868;11.892;2022-10-26T14:14:35;3.17;;;1.57;;
5199;SDS011;2619;47.868;11.892;2022-10-26T14:17:02;4.67;;;1.40;;
5199;SDS011;2619;47.868;11.892;2022-10-26T14:19:36;6.33;;;2.13;;
5199;SDS011;2619;47.868;11.892;2022-10-26T14:22:03;4.40;;;2.23;;
5199;SDS011;2619;47.868;11.892;2022-10-26T14:24:31;4.90;;;1.40;;
5199;SDS011;2619;47.868;11.892;2022-10-26T14:26:58;6.20;;;1.57;;
5199;SDS011;2619;47.868;11.892;2022-10-26T14:29:25;3.70;;;1.63;;
5199;SDS011;2619;47.868;11.892;2022-10-26T14:31:52;5.40;;;2.00;;
5199;SDS011;2619;47.868;11.892;2022-10-26T14:34:19;5.90;;;2.10;;
5199;SDS011;2619;47.868;11.892;2022-10-26T14:36:55;7.20;;;1.63;;
5199;SDS011;2619;47.868;11.892;2022-10-26T14:39:42;3.50;;;1.63;;
5199;SDS011;2619;47.868;11.892;2022-10-26T14:42:13;5.87;;;1.30;;
5199;SDS011;2619;47.868;11.892;2022-10-26T14:44:56;7.40;;;2.43;;
5199;SDS011;2619;47.868;11.892;2022-10-26T14:47:24;5.20;;;1.80;;
5199;SDS011;2619;47.868;11.892;2022-10-26T14:49:52;7.83;;;2.10;;
5199;SDS011;2619;47.868;11.892;2022-10-26T14:52:36;5.53;;;1.83;;
5199;SDS011;2619;47.868;11.892;2022-10-26T14:55:12;3.17;;;1.63;;
5199;SDS011;2619;47.868;11.892;2022-10-26T14:57:39;4.63;;;1.77;;
5199;SDS011;2619;47.868;11.892;2022-10-26T15:02:39;4.83;;;2.67;;
5199;SDS011;2619;47.868;11.892;2022-10-26T15:05:25;5.20;;;2.50;;
5199;SDS011;2619;47.868;11.892;2022-10-26T15:07:57;4.87;;;2.50;;
5199;SDS011;2619;47.868;11.892;2022-10-26T15:15:49;6.90;;;2.10;;
5199;SDS011;2619;47.868;11.892;2022-10-26T15:18:25;3.83;;;1.70;;
5199;SDS011;2619;47.868;11.892;2022-10-26T15:20:53;5.23;;;1.47;;
5199;SDS011;2619;47.868;11.892;2022-10-26T15:23:20;3.30;;;1.27;;
5199;SDS011;2619;47.868;11.892;2022-10-26T15:25:57;3.50;;;1.37;;
5199;SDS011;2619;47.868;11.892;2022-10-26T15:28:29;5.47;;;1.40;;
5199;SDS011;2619;47.868;11.892;2022-10-26T15:31:01;5.03;;;1.63;;
5199;SDS011;2619;47.868;11.892;2022-10-26T15:33:29;5.53;;;2.70;;
5199;SDS011;2619;47.868;11.892;2022-10-26T15:38:53;4.90;;;2.33;;
5199;SDS011;2619;47.868;11.892;2022-10-26T15:41:24;4.83;;;2.07;;
5199;SDS011;2619;47.868;11.892;2022-10-26T15:43:50;14.67;;;3.20;;
5199;SDS011;2619;47.868;11.892;2022-10-26T15:46:20;12.53;;;2.60;;
5199;SDS011;2619;47.868;11.892;2022-10-26T15:48:48;19.30;;;4.90;;
5199;SDS011;2619;47.868;11.892;2022-10-26T15:51:19;10.10;;;2.83;;
5199;SDS011;2619;47.868;11.892;2022-10-26T15:53:45;14.30;;;3.53;;
5199;SDS011;2619;47.868;11.892;2022-10-26T15:56:17;5.53;;;1.90;;
5199;SDS011;2619;47.868;11.892;2022-10-26T15:58:45;6.37;;;2.03;;
5199;SDS011;2619;47.868;11.892;2022-10-26T16:01:18;5.73;;;3.00;;
5199;SDS011;2619;47.868;11.892;2022-10-26T16:03:49;8.60;;;2.60;;
5199;SDS011;2619;47.868;11.892;2022-10-26T16:06:25;4.30;;;2.60;;
5199;SDS011;2619;47.868;11.892;2022-10-26T16:08:54;11.43;;;3.43;;
5199;SDS011;2619;47.868;11.892;2022-10-26T16:11:22;4.60;;;2.33;;
5199;SDS011;2619;47.868;11.892;2022-10-26T16:13:48;4.13;;;1.77;;
5199;SDS011;2619;47.868;11.892;2022-10-26T16:16:14;5.00;;;1.90;;
5199;SDS011;2619;47.868;11.892;2022-10-26T16:18:41;5.70;;;1.80;;
5199;SDS011;2619;47.868;11.892;2022-10-26T16:21:14;5.63;;;1.67;;
5199;SDS011;2619;47.868;11.892;2022-10-26T16:23:41;8.70;;;3.27;;
5199;SDS011;2619;47.868;11.892;2022-10-26T16:26:09;11.37;;;3.30;;
5199;SDS011;2619;47.868;11.892;2022-10-26T16:28:35;9.20;;;3.20;;
5199;SDS011;2619;47.868;11.892;2022-10-26T16:31:05;5.50;;;2.80;;
5199;SDS011;2619;47.868;11.892;2022-10-26T16:33:33;3.93;;;3.07;;
5199;SDS011;2619;47.868;11.892;2022-10-26T16:36:01;4.60;;;2.80;;
5199;SDS011;2619;47.868;11.892;2022-10-26T16:38:29;8.53;;;2.67;;
5199;SDS011;2619;47.868;11.892;2022-10-26T16:41:05;4.33;;;2.23;;
5199;SDS011;2619;47.868;11.892;2022-10-26T16:43:36;5.83;;;2.90;;
5199;SDS011;2619;47.868;11.892;2022-10-26T16:46:08;8.83;;;2.93;;
5199;SDS011;2619;47.868;11.892;2022-10-26T16:48:44;5.53;;;2.80;;
5199;SDS011;2619;47.868;11.892;2022-10-26T16:51:15;9.13;;;4.30;;
5199;SDS011;2619;47.868;11.892;2022-10-26T16:53:41;8.50;;;5.73;;
5199;SDS011;2619;47.868;11.892;2022-10-26T16:56:11;10.27;;;5.10;;
5199;SDS011;2619;47.868;11.892;2022-10-26T16:58:38;10.53;;;5.70;;
5199;SDS011;2619;47.868;11.892;2022-10-26T17:01:05;11.00;;;6.60;;
5199;SDS011;2619;47.868;11.892;2022-10-26T17:03:31;17.73;;;11.57;;
5199;SDS011;2619;47.868;11.892;2022-10-26T17:05:58;16.93;;;10.20;;
5199;SDS011;2619;47.868;11.892;2022-10-26T17:08:28;18.20;;;10.87;;
5199;SDS011;2619;47.868;11.892;2022-10-26T17:11:00;14.93;;;8.40;;
5199;SDS011;2619;47.868;11.892;2022-10-26T17:13:34;14.23;;;8.87;;
5199;SDS011;2619;47.868;11.892;2022-10-26T17:16:01;6.37;;;4.30;;
5199;SDS011;2619;47.868;11.892;2022-10-26T17:18:27;6.30;;;3.93;;
5199;SDS011;2619;47.868;11.892;2022-10-26T17:20:53;15.83;;;6.23;;
5199;SDS011;2619;47.868;11.892;2022-10-26T17:23:19;8.80;;;4.30;;
5199;SDS011;2619;47.868;11.892;2022-10-26T17:25:44;10.10;;;4.80;;
5199;SDS011;2619;47.868;11.892;2022-10-26T17:28:10;9.83;;;5.97;;
5199;SDS011;2619;47.868;11.892;2022-10-26T17:30:36;6.43;;;4.80;;